createdAt,value
2018-07-09T00:01:21.838Z,3.53
2018-07-09T00:03:49.530Z,4.27
2018-07-09T00:06:17.225Z,4.00
2018-07-09T00:08:44.840Z,3.70
2018-07-09T00:11:12.454Z,4.17
2018-07-09T00:13:40.075Z,4.23
2018-07-09T00:16:07.733Z,4.30
2018-07-09T00:18:35.395Z,4.00
2018-07-09T00:21:03.051Z,4.07
2018-07-09T00:23:30.710Z,4.73
2018-07-09T00:25:58.591Z,3.97
2018-07-09T00:28:26.669Z,4.23
2018-07-09T00:30:54.317Z,4.23
2018-07-09T00:33:22.315Z,3.57
2018-07-09T00:35:50.049Z,3.70
2018-07-09T00:38:18.430Z,3.80
2018-07-09T00:40:47.028Z,4.57
2018-07-09T00:43:14.703Z,4.07
2018-07-09T00:45:42.353Z,4.10
2018-07-09T00:48:10.024Z,3.97
2018-07-09T00:50:37.681Z,4.17
2018-07-09T00:53:05.287Z,4.10
2018-07-09T00:55:33.002Z,4.20
2018-07-09T00:58:00.656Z,4.20
2018-07-09T01:00:28.324Z,4.57
2018-07-09T01:02:55.992Z,4.33
2018-07-09T01:05:23.654Z,4.10
2018-07-09T01:07:51.284Z,5.37
2018-07-09T01:10:19.585Z,4.97
2018-07-09T01:12:47.273Z,3.90
2018-07-09T01:15:14.907Z,4.30
2018-07-09T01:17:42.564Z,4.30
2018-07-09T01:20:10.155Z,4.63
2018-07-09T01:22:37.804Z,4.47
2018-07-09T01:25:05.568Z,4.23
2018-07-09T01:27:33.315Z,4.43
2018-07-09T01:30:16.591Z,4.57
2018-07-09T01:32:44.163Z,4.10
2018-07-09T01:35:12.791Z,4.07
2018-07-09T01:37:41.101Z,5.33
2018-07-09T01:40:08.759Z,4.40
2018-07-09T01:42:36.719Z,5.27
2018-07-09T01:45:04.491Z,5.17
2018-07-09T01:47:32.148Z,4.90
2018-07-09T01:50:00.002Z,4.50
2018-07-09T01:52:28.111Z,4.00
2018-07-09T01:54:55.724Z,5.10
2018-07-09T01:57:23.292Z,4.60
2018-07-09T01:59:50.982Z,5.40
2018-07-09T02:02:18.615Z,4.17
2018-07-09T02:04:46.205Z,4.57
2018-07-09T02:07:13.798Z,4.37
2018-07-09T02:09:41.399Z,4.80
2018-07-09T02:12:08.993Z,4.67
2018-07-09T02:14:36.589Z,5.00
2018-07-09T02:17:04.290Z,5.20
2018-07-09T02:19:31.969Z,3.87
2018-07-09T02:21:59.630Z,4.40
2018-07-09T02:24:27.265Z,4.53
2018-07-09T02:26:54.960Z,4.20
2018-07-09T02:29:22.607Z,4.60
2018-07-09T02:31:50.250Z,4.30
2018-07-09T02:34:17.840Z,4.13
2018-07-09T02:36:45.473Z,4.50
2018-07-09T02:39:13.066Z,4.30
2018-07-09T02:41:40.693Z,4.70
2018-07-09T02:44:08.380Z,4.90
2018-07-09T02:46:35.951Z,4.40
2018-07-09T02:49:03.643Z,4.90
2018-07-09T02:51:31.253Z,4.47
2018-07-09T02:53:58.837Z,3.97
2018-07-09T02:56:26.523Z,4.57
2018-07-09T02:58:54.143Z,4.83
2018-07-09T03:01:21.807Z,4.70
2018-07-09T03:03:49.477Z,4.80
2018-07-09T03:06:17.115Z,4.70
2018-07-09T03:08:44.732Z,3.97
2018-07-09T03:11:12.305Z,4.40
2018-07-09T03:13:39.874Z,4.90
2018-07-09T03:16:07.515Z,4.87
2018-07-09T03:18:35.430Z,4.70
2018-07-09T03:21:03.013Z,4.53
2018-07-09T03:23:30.673Z,4.50
2018-07-09T03:25:58.337Z,4.40
2018-07-09T03:28:25.997Z,4.70
2018-07-09T03:30:53.647Z,5.00
2018-07-09T03:33:21.250Z,4.77
2018-07-09T03:35:48.902Z,4.67
2018-07-09T03:38:16.508Z,5.20
2018-07-09T03:40:44.088Z,4.33
2018-07-09T03:43:11.697Z,4.80
2018-07-09T03:45:39.291Z,5.10
2018-07-09T03:48:06.989Z,5.63
2018-07-09T03:50:34.641Z,4.80
2018-07-09T03:53:02.217Z,4.60
2018-07-09T03:55:29.882Z,4.77
2018-07-09T03:57:57.554Z,4.07
2018-07-09T04:00:25.217Z,4.87
2018-07-09T04:02:52.967Z,4.47
2018-07-09T04:05:20.617Z,4.27
2018-07-09T04:07:48.243Z,4.97
2018-07-09T04:10:15.866Z,4.90
2018-07-09T04:12:43.478Z,4.50
2018-07-09T04:15:11.083Z,5.20
2018-07-09T04:17:38.720Z,5.47
2018-07-09T04:20:06.300Z,5.30
2018-07-09T04:22:33.961Z,5.17
2018-07-09T04:25:01.615Z,5.13
2018-07-09T04:27:29.176Z,5.10
2018-07-09T04:29:56.830Z,5.70
2018-07-09T04:32:24.445Z,5.03
2018-07-09T04:34:52.016Z,5.77
2018-07-09T04:37:19.615Z,5.80
2018-07-09T04:39:47.282Z,5.23
2018-07-09T04:42:14.938Z,5.50
2018-07-09T04:44:42.527Z,5.50
2018-07-09T04:47:10.192Z,5.37
2018-07-09T04:49:37.831Z,5.17
2018-07-09T04:52:05.515Z,5.93
2018-07-09T04:54:33.141Z,5.70
2018-07-09T04:57:00.732Z,4.80
2018-07-09T04:59:28.385Z,5.80
2018-07-09T05:01:56.043Z,6.40
2018-07-09T05:04:23.640Z,5.33
2018-07-09T05:06:51.277Z,4.67
2018-07-09T05:09:18.934Z,4.80
2018-07-09T05:11:46.505Z,4.77
2018-07-09T05:14:14.142Z,5.07
2018-07-09T05:16:41.830Z,5.33
2018-07-09T05:19:09.476Z,5.20
2018-07-09T05:21:37.250Z,6.10
2018-07-09T05:24:04.926Z,6.87
2018-07-09T05:26:32.562Z,6.10
2018-07-09T05:29:00.244Z,7.33
2018-07-09T05:31:27.897Z,5.73
2018-07-09T05:33:55.592Z,6.27
2018-07-09T05:36:23.205Z,5.83
2018-07-09T05:38:50.966Z,6.20
2018-07-09T05:41:18.587Z,6.27
2018-07-09T05:43:46.215Z,5.90
2018-07-09T05:46:13.883Z,6.37
2018-07-09T05:48:41.563Z,6.13
2018-07-09T05:51:09.203Z,6.67
2018-07-09T05:53:36.844Z,6.60
2018-07-09T05:56:04.509Z,6.93
2018-07-09T05:58:32.165Z,7.10
2018-07-09T06:00:59.814Z,7.43
2018-07-09T06:03:27.444Z,7.20
2018-07-09T06:05:55.085Z,5.60
2018-07-09T06:08:22.743Z,6.50
2018-07-09T06:10:50.396Z,6.43
2018-07-09T06:13:18.041Z,6.30
2018-07-09T06:15:45.731Z,6.90
2018-07-09T06:18:13.364Z,5.97
2018-07-09T06:20:41.033Z,6.70
2018-07-09T06:23:08.748Z,6.47
2018-07-09T06:25:36.365Z,6.20
2018-07-09T06:28:04.028Z,6.20
2018-07-09T06:30:31.703Z,6.13
2018-07-09T06:32:59.349Z,6.10
2018-07-09T06:35:27.000Z,6.60
2018-07-09T06:37:54.607Z,6.40
2018-07-09T06:40:22.345Z,6.00
2018-07-09T06:42:50.020Z,6.43
2018-07-09T06:45:17.662Z,6.67
2018-07-09T06:47:45.309Z,6.73
2018-07-09T06:50:13.006Z,6.90
2018-07-09T06:52:40.647Z,6.27
2018-07-09T06:55:08.305Z,5.80
2018-07-09T06:57:35.914Z,6.40
2018-07-09T07:00:03.537Z,6.17
2018-07-09T07:02:31.189Z,6.67
2018-07-09T07:04:58.849Z,5.90
2018-07-09T07:07:26.512Z,6.17
2018-07-09T07:09:54.198Z,6.90
2018-07-09T07:12:21.829Z,6.00
2018-07-09T07:14:49.515Z,6.20
2018-07-09T07:17:17.141Z,6.60
2018-07-09T07:19:44.735Z,6.63
2018-07-09T07:22:12.335Z,5.73
2018-07-09T07:24:40.091Z,5.50
2018-07-09T07:27:07.711Z,5.87
2018-07-09T07:29:35.374Z,6.20
2018-07-09T07:32:02.985Z,5.33
2018-07-09T07:34:30.606Z,5.50
2018-07-09T07:36:58.273Z,4.73
2018-07-09T07:39:25.955Z,6.13
2018-07-09T07:41:53.614Z,4.70
2018-07-09T07:44:21.267Z,5.37
2018-07-09T07:46:48.924Z,4.20
2018-07-09T07:49:16.508Z,4.70
2018-07-09T07:51:44.156Z,4.57
2018-07-09T07:54:11.709Z,3.70
2018-07-09T07:56:39.405Z,4.50
2018-07-09T07:59:07.043Z,4.40
2018-07-09T08:01:34.683Z,4.60
2018-07-09T08:04:02.341Z,4.80
2018-07-09T08:06:30.033Z,4.30
2018-07-09T08:08:57.757Z,4.13
2018-07-09T08:11:47.687Z,4.63
2018-07-09T08:13:53.202Z,4.30
2018-07-09T08:16:20.877Z,4.20
2018-07-09T08:18:48.489Z,4.30
2018-07-09T08:21:16.094Z,5.10
2018-07-09T08:23:43.737Z,5.00
2018-07-09T08:26:11.318Z,4.47
2018-07-09T08:28:38.970Z,3.80
2018-07-09T08:31:06.722Z,3.97
2018-07-09T08:33:34.304Z,4.40
2018-07-09T08:36:01.901Z,4.87
2018-07-09T08:38:29.512Z,4.23
2018-07-09T08:40:57.179Z,4.03
2018-07-09T08:43:24.968Z,4.47
2018-07-09T08:45:52.663Z,4.07
2018-07-09T08:48:20.375Z,4.47
2018-07-09T08:50:48.237Z,3.60
2018-07-09T08:53:15.943Z,4.50
2018-07-09T08:55:43.695Z,4.07
2018-07-09T08:58:11.447Z,4.80
2018-07-09T09:00:39.130Z,3.90
2018-07-09T09:03:07.035Z,4.40
2018-07-09T09:05:34.765Z,4.27
2018-07-09T09:08:02.475Z,4.20
2018-07-09T09:10:30.235Z,4.50
2018-07-09T09:12:57.974Z,4.60
2018-07-09T09:15:25.810Z,4.63
2018-07-09T09:17:53.563Z,4.10
2018-07-09T09:20:21.267Z,4.47
2018-07-09T09:22:49.016Z,4.20
2018-07-09T09:25:16.731Z,4.53
2018-07-09T09:27:44.441Z,4.10
2018-07-09T09:30:12.254Z,4.63
2018-07-09T09:32:39.924Z,4.90
2018-07-09T09:35:07.620Z,4.10
2018-07-09T09:37:35.402Z,3.50
2018-07-09T09:40:03.141Z,4.00
2018-07-09T09:42:30.832Z,3.90
2018-07-09T09:44:58.606Z,4.70
2018-07-09T09:47:26.329Z,4.27
2018-07-09T09:49:54.034Z,3.97
2018-07-09T09:52:21.786Z,3.83
2018-07-09T09:54:49.545Z,3.70
2018-07-09T09:57:17.215Z,3.90
2018-07-09T09:59:44.970Z,3.87
2018-07-09T10:02:12.648Z,3.83
2018-07-09T10:04:40.390Z,3.97
2018-07-09T10:07:08.096Z,3.70
2018-07-09T10:09:35.779Z,3.73
2018-07-09T10:12:03.461Z,3.90
2018-07-09T10:14:31.264Z,3.70
2018-07-09T10:16:59.047Z,4.37
2018-07-09T10:19:26.806Z,4.40
2018-07-09T10:21:54.904Z,3.90
2018-07-09T10:24:22.646Z,4.30
2018-07-09T10:26:50.369Z,3.87
2018-07-09T10:29:18.054Z,3.60
2018-07-09T10:31:45.782Z,3.63
2018-07-09T10:34:13.506Z,4.17
2018-07-09T10:36:41.260Z,4.40
2018-07-09T10:39:09.010Z,4.20
2018-07-09T10:41:36.778Z,3.90
2018-07-09T10:44:04.520Z,3.83
2018-07-09T10:46:32.210Z,4.03
2018-07-09T10:49:00.094Z,4.00
2018-07-09T10:51:27.828Z,4.40
2018-07-09T10:53:55.533Z,4.77
2018-07-09T10:56:23.262Z,4.43
2018-07-09T10:58:50.977Z,4.40
2018-07-09T11:01:18.728Z,4.67
2018-07-09T11:03:46.414Z,4.73
2018-07-09T11:06:14.217Z,5.00
2018-07-09T11:08:41.903Z,4.90
2018-07-09T11:11:09.671Z,4.80
2018-07-09T11:13:37.389Z,4.97
2018-07-09T11:16:05.324Z,5.20
2018-07-09T11:18:33.066Z,5.57
2018-07-09T11:21:00.799Z,5.37
2018-07-09T11:23:28.576Z,4.87
2018-07-09T11:25:56.349Z,5.20
2018-07-09T11:28:24.094Z,4.67
2018-07-09T11:30:51.867Z,5.33
2018-07-09T11:33:19.655Z,5.50
2018-07-09T11:35:47.434Z,5.20
2018-07-09T11:38:15.184Z,5.70
2018-07-09T11:40:43.304Z,5.40
2018-07-09T11:43:10.992Z,4.60
2018-07-09T11:45:38.688Z,4.83
2018-07-09T11:48:06.380Z,4.50
2018-07-09T11:50:34.320Z,5.77
2018-07-09T11:53:02.041Z,5.20
2018-07-09T11:55:29.743Z,4.80
2018-07-09T11:57:57.471Z,4.70
2018-07-09T12:00:25.208Z,5.00
2018-07-09T12:02:52.897Z,4.93
2018-07-09T12:05:20.683Z,4.20
2018-07-09T12:07:48.440Z,4.83
2018-07-09T12:10:16.211Z,5.00
2018-07-09T12:12:43.961Z,5.67
2018-07-09T12:15:11.640Z,4.80
2018-07-09T12:17:39.390Z,5.00
2018-07-09T12:20:07.125Z,4.93
2018-07-09T12:22:34.800Z,4.37
2018-07-09T12:25:02.505Z,5.37
2018-07-09T12:27:30.546Z,5.00
2018-07-09T12:29:58.233Z,4.30
2018-07-09T12:32:26.022Z,4.90
2018-07-09T12:34:53.735Z,4.60
2018-07-09T12:37:21.426Z,4.80
2018-07-09T12:39:49.194Z,4.17
2018-07-09T12:42:16.856Z,4.33
2018-07-09T12:44:44.596Z,4.70
2018-07-09T12:47:12.396Z,4.60
2018-07-09T12:49:40.140Z,4.00
2018-07-09T12:52:07.822Z,4.17
2018-07-09T12:54:35.646Z,3.97
2018-07-09T12:57:03.364Z,4.10
2018-07-09T12:59:31.122Z,4.13
2018-07-09T13:01:58.834Z,4.13
2018-07-09T13:04:26.494Z,4.50
2018-07-09T13:06:54.204Z,4.10
2018-07-09T13:09:21.878Z,3.80
2018-07-09T13:11:49.623Z,3.60
2018-07-09T13:14:17.357Z,4.00
2018-07-09T13:16:45.017Z,3.77
2018-07-09T13:19:12.757Z,4.23
2018-07-09T13:21:40.466Z,4.60
2018-07-09T13:24:08.130Z,3.60
2018-07-09T13:26:35.794Z,3.53
2018-07-09T13:29:03.538Z,3.43
2018-07-09T13:31:31.303Z,3.60
2018-07-09T13:33:58.983Z,3.70
2018-07-09T13:36:26.959Z,3.47
2018-07-09T13:38:54.678Z,4.57
2018-07-09T13:41:22.403Z,3.50
2018-07-09T13:43:50.165Z,3.50
2018-07-09T13:46:17.824Z,3.40
2018-07-09T13:48:45.573Z,3.47
2018-07-09T13:51:13.334Z,3.10
2018-07-09T13:53:41.100Z,3.40
2018-07-09T13:56:08.765Z,3.50
2018-07-09T13:58:36.563Z,3.30
2018-07-09T14:01:04.270Z,3.17
2018-07-09T14:03:31.976Z,3.60
2018-07-09T14:05:59.640Z,3.30
2018-07-09T14:08:27.392Z,3.53
2018-07-09T14:10:55.102Z,3.90
2018-07-09T14:13:22.791Z,3.80
2018-07-09T14:15:50.488Z,3.40
2018-07-09T14:18:18.165Z,3.00
2018-07-09T14:20:46.402Z,2.63
2018-07-09T14:23:15.194Z,3.07
2018-07-09T14:25:43.157Z,2.80
2018-07-09T14:28:11.037Z,3.00
2018-07-09T14:30:38.752Z,3.17
2018-07-09T14:33:06.678Z,2.70
2018-07-09T14:35:34.451Z,2.93
2018-07-09T14:38:02.193Z,3.30
2018-07-09T14:40:29.862Z,2.63
2018-07-09T14:42:57.627Z,3.00
2018-07-09T14:45:25.385Z,3.00
2018-07-09T14:47:53.166Z,2.50
2018-07-09T14:50:20.859Z,2.73
2018-07-09T14:52:48.575Z,3.07
2018-07-09T14:55:16.275Z,3.50
2018-07-09T14:57:44.018Z,3.43
2018-07-09T15:00:11.778Z,3.50
2018-07-09T15:02:39.546Z,3.30
2018-07-09T15:05:07.305Z,2.97
2018-07-09T15:07:34.983Z,3.00
2018-07-09T15:10:02.708Z,2.83
2018-07-09T15:12:30.412Z,3.37
2018-07-09T15:14:58.126Z,3.30
2018-07-09T15:17:25.928Z,2.97
2018-07-09T15:19:53.687Z,3.00
2018-07-09T15:22:21.357Z,6.67
2018-07-09T15:24:49.056Z,2.83
2018-07-09T15:27:17.703Z,2.90
2018-07-09T15:29:45.501Z,2.80
2018-07-09T15:32:18.559Z,2.80
2018-07-09T15:34:46.314Z,2.97
2018-07-09T15:37:13.989Z,2.57
2018-07-09T15:39:41.759Z,3.03
2018-07-09T15:42:09.500Z,2.97
2018-07-09T15:44:37.201Z,2.87
2018-07-09T15:47:04.915Z,2.93
2018-07-09T15:49:32.611Z,3.00
2018-07-09T15:52:00.303Z,3.03
2018-07-09T15:54:28.034Z,2.93
2018-07-09T15:56:55.830Z,3.27
2018-07-09T15:59:23.526Z,3.17
2018-07-09T16:01:51.221Z,3.00
2018-07-09T16:04:19.016Z,3.13
2018-07-09T16:06:46.758Z,3.10
2018-07-09T16:09:14.516Z,2.77
2018-07-09T16:11:42.181Z,3.13
2018-07-09T16:14:09.851Z,3.03
2018-07-09T16:16:37.709Z,2.97
2018-07-09T16:19:05.472Z,3.30
2018-07-09T16:21:33.240Z,2.83
2018-07-09T16:24:01.007Z,3.00
2018-07-09T16:26:28.795Z,2.87
2018-07-09T16:28:56.677Z,3.13
2018-07-09T16:31:24.382Z,2.53
2018-07-09T16:33:52.106Z,3.63
2018-07-09T16:36:19.859Z,3.27
2018-07-09T16:38:47.598Z,2.90
2018-07-09T16:41:15.440Z,3.07
2018-07-09T16:43:43.213Z,3.30
2018-07-09T16:46:10.926Z,3.10
2018-07-09T16:48:38.662Z,3.90
2018-07-09T16:51:06.414Z,3.07
2018-07-09T16:53:34.125Z,3.63
2018-07-09T16:56:01.875Z,3.27
2018-07-09T16:58:29.639Z,3.40
2018-07-09T17:00:57.379Z,3.30
2018-07-09T17:03:25.108Z,3.33
2018-07-09T17:05:52.837Z,2.93
2018-07-09T17:08:20.769Z,3.07
2018-07-09T17:10:48.467Z,2.73
2018-07-09T17:13:16.168Z,3.40
2018-07-09T17:15:43.845Z,3.70
2018-07-09T17:18:11.658Z,3.57
2018-07-09T17:20:39.434Z,3.70
2018-07-09T17:23:07.263Z,3.27
2018-07-09T17:25:35.031Z,3.77
2018-07-09T17:28:02.809Z,3.33
2018-07-09T17:30:30.535Z,3.63
2018-07-09T17:32:58.257Z,3.67
2018-07-09T17:35:25.987Z,3.60
2018-07-09T17:37:53.758Z,3.67
2018-07-09T17:40:21.528Z,3.23
2018-07-09T17:42:49.286Z,3.80
2018-07-09T17:45:17.226Z,3.13
2018-07-09T17:47:44.933Z,3.33
2018-07-09T17:50:12.785Z,3.80
2018-07-09T17:52:40.447Z,3.67
2018-07-09T17:55:08.221Z,3.87
2018-07-09T17:57:36.091Z,4.10
2018-07-09T18:00:03.906Z,4.13
2018-07-09T18:02:31.631Z,3.80
2018-07-09T18:04:59.379Z,3.70
2018-07-09T18:07:27.148Z,4.50
2018-07-09T18:09:54.902Z,4.13
2018-07-09T18:12:22.640Z,4.30
2018-07-09T18:14:50.342Z,3.80
2018-07-09T18:17:18.113Z,4.23
2018-07-09T18:19:45.980Z,4.20
2018-07-09T18:22:13.625Z,3.90
2018-07-09T18:24:41.381Z,3.80
2018-07-09T18:27:09.155Z,3.60
2018-07-09T18:29:36.922Z,4.13
2018-07-09T18:32:04.675Z,3.70
2018-07-09T18:34:32.442Z,4.83
2018-07-09T18:37:00.135Z,3.90
2018-07-09T18:39:28.106Z,4.60
2018-07-09T18:41:55.879Z,4.87
2018-07-09T18:44:23.599Z,4.63
2018-07-09T18:46:51.370Z,4.20
2018-07-09T18:49:19.163Z,4.50
2018-07-09T18:51:46.905Z,4.23
2018-07-09T18:54:14.586Z,4.23
2018-07-09T18:56:42.399Z,4.10
2018-07-09T18:59:10.101Z,3.80
2018-07-09T19:01:37.920Z,4.73
2018-07-09T19:04:05.619Z,4.60
2018-07-09T19:06:55.159Z,4.60
2018-07-09T19:09:23.960Z,4.77
2018-07-09T19:11:51.944Z,4.83
2018-07-09T19:14:20.228Z,5.03
2018-07-09T19:16:54.177Z,4.60
2018-07-09T19:19:55.645Z,4.73
2018-07-09T19:22:29.641Z,5.07
2018-07-09T19:24:56.674Z,5.60
2018-07-09T19:27:23.646Z,4.90
2018-07-09T19:29:50.683Z,4.60
2018-07-09T19:32:18.147Z,5.20
2018-07-09T19:34:45.206Z,5.30
2018-07-09T19:37:12.341Z,4.50
2018-07-09T19:39:39.271Z,5.27
2018-07-09T19:42:06.364Z,5.47
2018-07-09T19:44:35.789Z,5.77
2018-07-09T19:47:02.781Z,4.73
2018-07-09T19:49:29.802Z,5.13
2018-07-09T19:51:58.619Z,5.20
2018-07-09T19:54:25.599Z,5.33
2018-07-09T19:56:53.962Z,5.27
2018-07-09T19:59:22.029Z,5.43
2018-07-09T20:01:49.109Z,5.10
2018-07-09T20:04:16.128Z,5.07
2018-07-09T20:06:43.198Z,5.70
2018-07-09T20:09:16.042Z,5.67
2018-07-09T20:11:48.945Z,6.00
2018-07-09T20:14:21.322Z,5.40
2018-07-09T20:16:53.476Z,5.40
2018-07-09T20:19:20.522Z,5.50
2018-07-09T20:21:47.585Z,5.90
2018-07-09T20:24:14.644Z,5.27
2018-07-09T20:26:41.643Z,5.20
2018-07-09T20:29:09.007Z,5.27
2018-07-09T20:31:36.314Z,5.30
2018-07-09T20:34:03.432Z,5.43
2018-07-09T20:36:31.715Z,5.37
2018-07-09T20:38:58.796Z,6.43
2018-07-09T20:41:25.871Z,5.70
2018-07-09T20:43:52.951Z,5.77
2018-07-09T20:46:20.015Z,5.40
2018-07-09T20:48:47.060Z,5.70
2018-07-09T20:51:14.063Z,5.57
2018-07-09T20:53:41.129Z,5.47
2018-07-09T20:56:08.224Z,5.47
2018-07-09T20:58:35.335Z,5.87
2018-07-09T21:01:02.417Z,5.67
2018-07-09T21:03:29.428Z,5.50
2018-07-09T21:05:56.577Z,5.37
2018-07-09T21:08:23.619Z,5.20
2018-07-09T21:10:50.667Z,5.60
2018-07-09T21:13:17.733Z,6.27
2018-07-09T21:15:44.857Z,5.80
2018-07-09T21:18:11.759Z,5.40
2018-07-09T21:20:38.798Z,5.00
2018-07-09T21:23:05.819Z,5.77
2018-07-09T21:25:32.852Z,5.70
2018-07-09T21:27:59.883Z,5.40
2018-07-09T21:30:26.850Z,5.93
2018-07-09T21:32:53.890Z,6.30
2018-07-09T21:35:20.865Z,6.23
2018-07-09T21:37:48.027Z,6.00
2018-07-09T21:40:14.939Z,6.00
2018-07-09T21:42:41.999Z,5.57
2018-07-09T21:45:08.995Z,6.30
2018-07-09T21:47:35.955Z,5.73
2018-07-09T21:50:02.959Z,5.80
2018-07-09T21:52:29.986Z,6.13
2018-07-09T21:54:57.015Z,6.43
2018-07-09T21:57:23.982Z,5.60
2018-07-09T21:59:50.962Z,5.87
2018-07-09T22:02:17.947Z,6.00
2018-07-09T22:04:45.003Z,6.10
2018-07-09T22:07:11.972Z,6.30
2018-07-09T22:09:38.923Z,6.30
2018-07-09T22:12:05.955Z,6.20
2018-07-09T22:14:32.969Z,5.97
2018-07-09T22:17:00.043Z,6.67
2018-07-09T22:19:27.079Z,6.40
2018-07-09T22:21:54.035Z,6.93
2018-07-09T22:24:21.007Z,6.00
2018-07-09T22:26:47.960Z,6.13
2018-07-09T22:29:14.969Z,5.90
2018-07-09T22:31:42.715Z,6.27
2018-07-09T22:34:10.523Z,7.23
2018-07-09T22:36:38.276Z,6.47
2018-07-09T22:39:06.108Z,5.90
2018-07-09T22:41:33.890Z,6.80
2018-07-09T22:44:07.190Z,6.77
2018-07-09T22:46:34.876Z,7.53
2018-07-09T22:49:02.609Z,6.00
2018-07-09T22:51:30.289Z,6.93
2018-07-09T22:53:58.061Z,7.03
2018-07-09T22:56:25.905Z,7.10
2018-07-09T22:58:53.601Z,7.23
2018-07-09T23:01:21.313Z,5.93
2018-07-09T23:03:49.030Z,6.73
2018-07-09T23:06:16.690Z,5.80
2018-07-09T23:08:44.351Z,7.20
2018-07-09T23:11:18.017Z,6.33
2018-07-09T23:14:50.902Z,7.17
2018-07-09T23:17:24.215Z,6.37
2018-07-09T23:19:57.361Z,7.00
2018-07-09T23:22:24.865Z,6.87
2018-07-09T23:24:51.817Z,6.90
2018-07-09T23:27:18.766Z,7.07
2018-07-09T23:29:45.730Z,6.57
2018-07-09T23:32:12.755Z,6.83
2018-07-09T23:34:39.775Z,6.60
2018-07-09T23:37:06.750Z,6.10
2018-07-09T23:39:33.779Z,6.70
2018-07-09T23:42:00.759Z,6.50
2018-07-09T23:44:27.742Z,6.03
2018-07-09T23:46:54.722Z,6.13
2018-07-09T23:49:21.733Z,7.20
2018-07-09T23:51:48.728Z,6.17
2018-07-09T23:54:15.688Z,6.10
2018-07-09T23:57:18.986Z,7.23
2018-07-09T23:59:52.555Z,6.67
